DLH25 EDDV-EETN
Flight info
| Callsign | DLH25 |
|---|---|
| Flight time | N/A |
| Altitude | 37000 |
| Route | CEL7Y/09L CEL Q282 BKD DCT KUBAB DCT DETNI DCT DEREX DCT SULUN SULUN1L |
| Aircraft | A359/H-SDE2E3GHIJ3J4J5LM1ORWXY/LB1D1 |
Departure
| Time | 2026-04-30 11:32 |
|---|---|
| Airport | Hannover Airport (EDDV) |
Arrival
| Time | N/A |
|---|---|
| Airport | Lennart Meri Tallinn Airport (EETN) |
| Time | Latitude | Longitude | Altitude | Speed | Heading |
|---|---|---|---|---|---|
| 2026-04-30 10:34 | 52.45995 | 9.69100 | 181 ft | 0 kts | 69° |
| 2026-04-30 11:17 | 52.45987 | 9.69079 | 173 ft | 2 kts | 40° |
| 2026-04-30 11:17 | 52.45973 | 9.69066 | 182 ft | 2 kts | 13° |
| 2026-04-30 11:17 | 52.45956 | 9.69062 | 182 ft | 2 kts | 357° |
| 2026-04-30 11:17 | 52.45940 | 9.69066 | 182 ft | 2 kts | 347° |
| 2026-04-30 11:18 | 52.45924 | 9.69073 | 182 ft | 2 kts | 339° |
| 2026-04-30 11:18 | 52.45905 | 9.69088 | 182 ft | 0 kts | 326° |
| 2026-04-30 11:22 | 52.45905 | 9.69087 | 182 ft | 1 kts | 326° |
| 2026-04-30 11:22 | 52.45920 | 9.69069 | 182 ft | 5 kts | 322° |
| 2026-04-30 11:23 | 52.45962 | 9.69017 | 182 ft | 13 kts | 323° |
| 2026-04-30 11:23 | 52.46063 | 9.68891 | 183 ft | 20 kts | 322° |
| 2026-04-30 11:23 | 52.46283 | 9.68613 | 199 ft | 20 kts | 322° |
| 2026-04-30 11:24 | 52.46374 | 9.68499 | 197 ft | 12 kts | 322° |
| 2026-04-30 11:24 | 52.46447 | 9.68407 | 183 ft | 15 kts | 322° |
| 2026-04-30 11:24 | 52.46509 | 9.68268 | 193 ft | 15 kts | 289° |
| 2026-04-30 11:25 | 52.46528 | 9.67875 | 190 ft | 20 kts | 272° |
| 2026-04-30 11:25 | 52.46534 | 9.67652 | 200 ft | 20 kts | 273° |
| 2026-04-30 11:25 | 52.46547 | 9.67211 | 199 ft | 20 kts | 272° |
| 2026-04-30 11:26 | 52.46560 | 9.66729 | 188 ft | 23 kts | 272° |
| 2026-04-30 11:26 | 52.46567 | 9.66463 | 183 ft | 20 kts | 272° |
| 2026-04-30 11:26 | 52.46573 | 9.66258 | 188 ft | 17 kts | 272° |
| 2026-04-30 11:27 | 52.46579 | 9.66036 | 199 ft | 20 kts | 272° |
| 2026-04-30 11:27 | 52.46585 | 9.65808 | 188 ft | 20 kts | 272° |
| 2026-04-30 11:27 | 52.46591 | 9.65579 | 189 ft | 20 kts | 272° |
| 2026-04-30 11:27 | 52.46602 | 9.65384 | 196 ft | 16 kts | 288° |
| 2026-04-30 11:28 | 52.46693 | 9.65280 | 194 ft | 0 kts | 0° |
| 2026-04-30 11:29 | 52.46749 | 9.65281 | 190 ft | 10 kts | 0° |
| 2026-04-30 11:30 | 52.46824 | 9.65381 | 192 ft | 7 kts | 94° |
| 2026-04-30 11:30 | 52.46823 | 9.65385 | 200 ft | 0 kts | 94° |
| 2026-04-30 11:31 | 52.46823 | 9.65397 | 199 ft | 7 kts | 94° |
| 2026-04-30 11:31 | 52.46811 | 9.65770 | 197 ft | 80 kts | 92° |
| 2026-04-30 11:31 | 52.46780 | 9.67371 | 260 ft | 193 kts | 92° |
| 2026-04-30 11:32 | 52.46755 | 9.69493 | 1362 ft | 175 kts | 91° |
| 2026-04-30 11:32 | 52.46765 | 9.71449 | 2430 ft | 174 kts | 90° |
| 2026-04-30 11:32 | 52.46759 | 9.73555 | 2806 ft | 197 kts | 92° |
| 2026-04-30 11:33 | 52.46624 | 9.77339 | 4128 ft | 198 kts | 95° |
| 2026-04-30 11:33 | 52.46475 | 9.80329 | 5228 ft | 200 kts | 94° |
| 2026-04-30 11:33 | 52.46405 | 9.81875 | 5718 ft | 203 kts | 93° |
| 2026-04-30 11:33 | 52.46315 | 9.84192 | 6498 ft | 204 kts | 93° |
| 2026-04-30 11:34 | 52.46219 | 9.86535 | 7251 ft | 207 kts | 93° |
| 2026-04-30 11:34 | 52.46128 | 9.88896 | 7983 ft | 208 kts | 92° |
| 2026-04-30 11:34 | 52.46157 | 9.91220 | 8648 ft | 208 kts | 73° |
| 2026-04-30 11:34 | 52.46899 | 9.93276 | 9243 ft | 219 kts | 50° |
| 2026-04-30 11:35 | 52.48198 | 9.94864 | 9461 ft | 249 kts | 32° |
| 2026-04-30 11:35 | 52.49822 | 9.96105 | 10030 ft | 263 kts | 28° |
| 2026-04-30 11:35 | 52.51527 | 9.97324 | 10767 ft | 270 kts | 28° |
| 2026-04-30 11:35 | 52.53306 | 9.98625 | 11148 ft | 293 kts | 28° |
| 2026-04-30 11:36 | 52.55252 | 10.00083 | 11366 ft | 322 kts | 28° |
| 2026-04-30 11:36 | 52.57354 | 10.01709 | 11624 ft | 341 kts | 32° |
| 2026-04-30 11:36 | 52.59209 | 10.04192 | 12252 ft | 348 kts | 51° |
| 2026-04-30 11:36 | 52.60504 | 10.07533 | 13355 ft | 348 kts | 63° |
| 2026-04-30 11:37 | 52.61572 | 10.11126 | 14436 ft | 352 kts | 64° |
| 2026-04-30 11:37 | 52.62631 | 10.14782 | 15386 ft | 356 kts | 64° |
| 2026-04-30 11:37 | 52.63704 | 10.18487 | 16337 ft | 361 kts | 64° |
| 2026-04-30 11:37 | 52.64786 | 10.22186 | 17273 ft | 366 kts | 64° |
| 2026-04-30 11:38 | 52.65907 | 10.25988 | 18214 ft | 371 kts | 63° |